Pagrindinis puslapis
METAR-TAF:

METAR-TAF

Oro uostai :

Lisabona, Portugalija

platuma: 38-46N, ilguma: 009-08W, Aukštis: 114 m

Dabartinis oras

Ataskaita buvo paskelbta 51 minutes, ne 22:30 UTC
Vėjas 7 kt iš Šiaurės Vakarų
Temperatūra 16°C
Drėgmė 59%
Slėgis 1029 hPa
Matomumas 10 km arba daugiau
nėra debesų žemiau 1500 m ir nėra kamuolinių lietaus debesų

METAR: LPPT 212230Z 32007KT CAVOK 16/08 Q1029

Laikas: 23:21 (23:21 UTC)

Prognozė

Ataskaita buvo paskelbta 6 valandos ir 21 minutes, ne 17:00 UTC
Prognozė galioja nuo 21 metu 18 UTC su 22 metu 24 UTC
Vėjas 8 kt iš Šiaurės Rytų
Matomumas 10 km arba daugiau
nėra debesų žemiau 1500 m ir nėra kamuolinių lietaus debesų
Tapsmas
nuo 21 metu 18 UTC su 21 metu 21 UTC
Vėjas 7 kt iš Šiaurės
Tapsmas
nuo 22 metu 00 UTC su 22 metu 03 UTC
Vėjas 7 kt iš Šiaurės Rytų

TAF: LPPT 211700Z 2118/2224 04008KT CAVOK BECMG 2118/2121 35007KT BECMG 2200/2203 04007KT

Orai ataskaitas ir orų prognozės (METAR, TAF).

turimą stotys yra geltonos ir raudonos taškus žemėlapyje.

Perkelti pele per norėdami pamatyti stoties vardą.

Tada spustelėkite, norėdami matyti oro stebėjimo ir prognozės.

Norėdami pakeisti žemėlapį: spustelėkite ant žalios mygtukų su juodo kryžiaus žemyn,; žalią mygtuką su brūkšneliu, jei norite nutolinti; arba žalių rodyklių gretimoms žemėlapius.


METAR-TAF: